Time;durP1;ratioP1;P1;durP2;ratioP2;P2;SDS_P1;SDS_P2;PMS_P1;PMS_P2;Temp;Humidity;BMP_temperature;BMP_pressure;BME280_temperature;BME280_humidity;BME280_pressure;Samples;Min_cycle;Max_cycle;Signal;HPM_P1;HPM_P2
2021/08/02 00:04:13;;;;;;;2.77;1.70;;;16.80;99.90;;;;;;5017916;28;20396;-79
2021/08/02 00:07:04;;;;;;;1.43;1.33;;;16.70;99.90;;;;;;5014279;28;20395;-80
2021/08/02 00:09:40;;;;;;;1.73;1.60;;;16.70;99.90;;;;;;5014152;28;20355;-80
2021/08/02 00:12:10;;;;;;;2.43;1.97;;;16.50;99.90;;;;;;5031166;28;20406;-75
2021/08/02 00:14:46;;;;;;;5.70;2.10;;;16.50;99.90;;;;;;5033751;28;20422;-75
2021/08/02 00:17:12;;;;;;;1.60;1.50;;;16.50;99.90;;;;;;5016319;28;20407;-75
2021/08/02 00:19:38;;;;;;;5.03;1.77;;;16.50;99.90;;;;;;5013977;28;20375;-75
2021/08/02 00:22:04;;;;;;;1.67;1.57;;;16.40;99.90;;;;;;5029949;28;20386;-75
2021/08/02 00:24:37;;;;;;;2.50;1.50;;;16.40;99.90;;;;;;5033931;28;20398;-75
2021/08/02 00:27:15;;;;;;;4.20;1.53;;;16.40;99.90;;;;;;5022390;28;20435;-79
2021/08/02 00:29:56;;;;;;;1.90;1.80;;;16.30;99.90;;;;;;5017833;28;20393;-80
2021/08/02 00:32:49;;;;;;;5.33;1.90;;;16.30;99.90;;;;;;5033310;28;20370;-80
2021/08/02 00:35:25;;;;;;;4.30;1.73;;;16.30;99.90;;;;;;5021093;28;20972;-80
2021/08/02 00:38:06;;;;;;;2.90;2.13;;;16.30;99.90;;;;;;5021730;28;20427;-80
2021/08/02 00:41:08;;;;;;;3.63;1.90;;;16.30;99.90;;;;;;5031860;28;20450;-79
2021/08/02 00:44:31;;;;;;;4.20;1.53;;;16.30;99.90;;;;;;5032541;28;20411;-75
2021/08/02 00:47:07;;;;;;;1.60;1.50;;;16.30;99.90;;;;;;4953082;28;20401;-75
2021/08/02 00:49:36;;;;;;;3.90;1.50;;;16.20;99.90;;;;;;4953393;29;20425;-75
2021/08/02 00:52:03;;;;;;;2.27;2.03;;;16.10;99.90;;;;;;4952747;29;20948;-75
2021/08/02 00:54:33;;;;;;;2.77;1.70;;;16.10;99.90;;;;;;4953114;29;20491;-75
2021/08/02 00:57:02;;;;;;;2.13;1.50;;;16.10;99.90;;;;;;4953380;28;20448;-75
2021/08/02 00:59:30;;;;;;;5.80;2.53;;;16.00;99.90;;;;;;4955954;29;20384;-75
2021/08/02 01:02:03;;;;;;;1.83;1.73;;;16.00;99.90;;;;;;4956493;29;20408;-75
2021/08/02 01:04:32;;;;;;;3.23;1.70;;;15.90;99.90;;;;;;4956142;29;21074;-75
2021/08/02 01:07:00;;;;;;;4.33;1.70;;;15.90;99.90;;;;;;4956738;29;20427;-75
2021/08/02 01:09:27;;;;;;;4.60;1.80;;;15.90;99.90;;;;;;4956610;29;20405;-75
2021/08/02 01:12:04;;;;;;;1.70;1.60;;;15.80;99.90;;;;;;4956621;29;21004;-75
2021/08/02 01:14:33;;;;;;;2.20;1.70;;;15.80;99.90;;;;;;4956785;29;20958;-75
2021/08/02 01:16:59;;;;;;;2.10;1.87;;;15.70;99.90;;;;;;4956551;29;20405;-75
2021/08/02 01:19:25;;;;;;;3.23;1.97;;;15.70;99.90;;;;;;4956330;29;20390;-75
2021/08/02 01:21:59;;;;;;;11.80;2.20;;;15.70;99.90;;;;;;4956379;29;20401;-75
2021/08/02 01:24:27;;;;;;;2.70;1.90;;;15.70;99.90;;;;;;5014037;28;20418;-75
2021/08/02 01:26:58;;;;;;;8.83;2.30;;;15.60;99.90;;;;;;5017206;28;20375;-75
2021/08/02 01:30:02;;;;;;;2.13;1.93;;;15.60;99.90;;;;;;5035818;28;20417;-75
2021/08/02 01:32:27;;;;;;;3.23;1.80;;;15.60;99.90;;;;;;5035933;28;20501;-75
2021/08/02 01:34:54;;;;;;;8.97;2.70;;;15.50;99.90;;;;;;5026299;28;20564;-75
2021/08/02 01:37:32;;;;;;;7.00;1.90;;;15.40;99.90;;;;;;5029018;28;20933;-75
2021/08/02 01:40:02;;;;;;;2.70;1.87;;;15.40;99.90;;;;;;5018115;28;20617;-75
2021/08/02 01:43:13;;;;;;;2.77;2.30;;;15.30;99.90;;;;;;5033400;28;20415;-75
2021/08/02 01:45:58;;;;;;;6.43;2.10;;;15.30;99.90;;;;;;5024624;28;20411;-75
2021/08/02 01:48:24;;;;;;;3.80;2.03;;;15.30;99.90;;;;;;5035584;28;20381;-75
2021/08/02 01:51:00;;;;;;;7.33;1.83;;;15.30;99.90;;;;;;5029661;28;20754;-75
2021/08/02 01:53:30;;;;;;;3.03;1.90;;;15.20;99.90;;;;;;5017357;28;20530;-75
2021/08/02 01:56:06;;;;;;;2.63;1.80;;;15.20;99.90;;;;;;5017611;28;20390;-75
2021/08/02 01:58:55;;;;;;;2.33;2.07;;;15.20;99.90;;;;;;5019880;28;20418;-75
2021/08/02 02:01:24;;;;;;;2.10;1.83;;;15.20;99.90;;;;;;5016132;28;20944;-75
2021/08/02 02:03:51;;;;;;;5.00;2.10;;;15.10;99.90;;;;;;5028072;28;20501;-75
2021/08/02 02:06:37;;;;;;;2.03;1.90;;;15.10;99.90;;;;;;5030749;28;20409;-75
2021/08/02 02:09:08;;;;;;;2.97;2.07;;;15.10;99.90;;;;;;5035231;28;20930;-75
2021/08/02 02:11:37;;;;;;;4.07;1.97;;;15.10;99.90;;;;;;5020321;28;20398;-75
2021/08/02 02:14:26;;;;;;;6.10;2.03;;;15.10;99.90;;;;;;5016373;28;20966;-75
2021/08/02 02:16:55;;;;;;;3.77;2.20;;;15.10;99.90;;;;;;5017467;28;20390;-75
2021/08/02 02:19:27;;;;;;;4.30;1.93;;;15.10;99.90;;;;;;5035604;28;20490;-75
2021/08/02 02:21:55;;;;;;;2.30;2.00;;;15.00;99.90;;;;;;5035582;28;20358;-75
2021/08/02 02:24:26;;;;;;;2.27;1.90;;;15.10;99.90;;;;;;5035638;28;20377;-75
2021/08/02 02:26:54;;;;;;;2.90;2.13;;;15.10;99.90;;;;;;5019136;28;20445;-75
2021/08/02 02:29:21;;;;;;;3.43;1.60;;;15.10;99.90;;;;;;5033234;28;20502;-79
2021/08/02 02:31:56;;;;;;;3.47;2.10;;;15.10;99.90;;;;;;5035160;28;20846;-79
2021/08/02 02:34:23;;;;;;;2.40;1.83;;;15.20;99.90;;;;;;5024014;28;20487;-80
2021/08/02 02:36:50;;;;;;;2.10;1.90;;;15.20;99.90;;;;;;5017381;28;20513;-79
2021/08/02 02:39:16;;;;;;;3.23;1.90;;;15.30;99.90;;;;;;5025748;28;20420;-79
2021/08/02 02:42:19;;;;;;;4.40;2.23;;;15.30;99.90;;;;;;5028596;28;20470;-80
2021/08/02 02:44:56;;;;;;;3.20;2.17;;;15.30;99.90;;;;;;5026289;28;20460;-75
2021/08/02 02:47:26;;;;;;;1.93;1.60;;;15.30;99.90;;;;;;5032590;28;20413;-75
2021/08/02 02:49:57;;;;;;;2.10;1.90;;;15.30;99.90;;;;;;5034842;28;20400;-75
2021/08/02 02:52:23;;;;;;;11.60;1.83;;;15.30;99.90;;;;;;5034930;28;20515;-75
2021/08/02 02:54:58;;;;;;;2.00;1.80;;;15.40;99.90;;;;;;5035197;28;20465;-75
2021/08/02 02:57:24;;;;;;;1.80;1.70;;;15.40;99.90;;;;;;5027763;28;20416;-75
2021/08/02 02:59:50;;;;;;;3.63;2.20;;;;;;;;;;5034404;28;20436;-75
2021/08/02 03:02:18;;;;;;;3.00;1.60;;;15.40;99.90;;;;;;5034964;28;20165;-76
2021/08/02 03:04:47;;;;;;;2.10;2.00;;;15.40;99.90;;;;;;5028959;28;20411;-75
2021/08/02 03:07:15;;;;;;;2.53;2.33;;;15.40;99.90;;;;;;5032671;28;20465;-75
2021/08/02 03:09:43;;;;;;;2.30;2.03;;;15.40;99.90;;;;;;5029793;28;20516;-75
2021/08/02 03:12:09;;;;;;;2.27;1.70;;;15.40;99.90;;;;;;5022528;28;20783;-75
2021/08/02 03:14:56;;;;;;;3.07;2.17;;;15.50;99.90;;;;;;5015629;28;20451;-79
2021/08/02 03:17:55;;;;;;;1.83;1.73;;;15.50;99.90;;;;;;5014667;28;20724;-79
2021/08/02 03:20:26;;;;;;;2.90;2.27;;;15.40;99.90;;;;;;5028358;28;20396;-81
2021/08/02 03:23:03;;;;;;;4.53;3.13;;;15.40;99.90;;;;;;5014267;28;20392;-79
2021/08/02 03:26:07;;;;;;;6.73;2.17;;;15.40;99.90;;;;;;5015183;28;20878;-80
2021/08/02 03:28:43;;;;;;;2.30;2.10;;;15.40;99.90;;;;;;5034049;28;20422;-75
2021/08/02 03:31:12;;;;;;;5.13;1.90;;;15.40;99.90;;;;;;5025316;28;20417;-75
2021/08/02 03:33:41;;;;;;;2.90;2.40;;;15.40;99.90;;;;;;5014233;28;20451;-75
2021/08/02 03:36:12;;;;;;;2.43;2.17;;;15.40;99.90;;;;;;5022631;28;20412;-76
2021/08/02 03:38:57;;;;;;;2.30;2.20;;;15.40;99.90;;;;;;5030736;28;20397;-75
2021/08/02 03:41:26;;;;;;;2.20;2.00;;;15.50;99.90;;;;;;5029571;28;20481;-75
2021/08/02 03:43:53;;;;;;;2.70;2.10;;;15.50;99.90;;;;;;5025951;28;20912;-76
2021/08/02 03:46:21;;;;;;;2.43;2.03;;;15.50;99.90;;;;;;5026056;28;20398;-75
2021/08/02 03:48:47;;;;;;;2.53;2.33;;;15.50;99.90;;;;;;5033747;28;20747;-75
2021/08/02 03:51:14;;;;;;;8.73;2.20;;;15.50;99.90;;;;;;5033982;28;20428;-75
2021/08/02 03:53:45;;;;;;;2.93;2.47;;;15.50;99.90;;;;;;5034074;28;20457;-75
2021/08/02 03:56:20;;;;;;;7.60;2.03;;;15.40;99.90;;;;;;5024812;28;20407;-76
2021/08/02 03:58:56;;;;;;;3.00;2.40;;;15.40;99.90;;;;;;5027285;28;20982;-79
2021/08/02 04:01:21;;;;;;;3.03;2.37;;;15.40;99.90;;;;;;5032038;28;20997;-79
2021/08/02 04:04:25;;;;;;;2.90;2.20;;;15.40;99.90;;;;;;5016644;28;20419;-80
2021/08/02 04:06:55;;;;;;;3.70;2.30;;;15.30;99.90;;;;;;5013841;28;20215;-79
2021/08/02 04:09:26;;;;;;;2.40;2.20;;;15.30;99.90;;;;;;5012659;28;20387;-79
2021/08/02 04:11:56;;;;;;;10.33;2.80;;;15.20;99.90;;;;;;5015575;28;20483;-79
2021/08/02 04:14:25;;;;;;;4.70;2.30;;;15.20;99.90;;;;;;5033820;28;20433;-80
2021/08/02 04:16:56;;;;;;;4.70;2.17;;;15.10;99.90;;;;;;5032290;28;20780;-81
2021/08/02 04:19:25;;;;;;;3.00;2.30;;;15.20;99.90;;;;;;5032228;28;20369;-80
2021/08/02 04:21:58;;;;;;;2.27;2.07;;;15.20;99.90;;;;;;5020677;28;20435;-80
2021/08/02 04:24:23;;;;;;;2.77;2.40;;;15.10;99.90;;;;;;5033809;28;20370;-80
2021/08/02 04:26:55;;;;;;;2.30;2.10;;;15.10;99.90;;;;;;5027154;28;20408;-80
2021/08/02 04:29:26;;;;;;;2.67;2.43;;;15.10;99.90;;;;;;5033441;28;20591;-79
2021/08/02 04:31:56;;;;;;;2.40;2.20;;;15.10;99.90;;;;;;5021784;28;20749;-78
2021/08/02 04:34:55;;;;;;;2.80;2.37;;;15.00;99.90;;;;;;5026514;28;20430;-78
2021/08/02 04:37:25;;;;;;;7.20;2.20;;;15.00;99.90;;;;;;5020916;28;20783;-77
2021/08/02 04:39:57;;;;;;;2.83;2.63;;;15.00;99.90;;;;;;5028430;28;20878;-78
2021/08/02 04:42:25;;;;;;;3.13;2.83;;;15.00;99.90;;;;;;5023800;28;20382;-78
2021/08/02 04:44:56;;;;;;;3.23;2.37;;;15.00;99.90;;;;;;5017701;28;20739;-78
2021/08/02 04:47:25;;;;;;;4.90;2.67;;;15.20;99.90;;;;;;5036497;28;20516;-78
2021/08/02 04:53:13;;;;;;;4.30;2.07;;;15.20;99.90;;;;;;5036919;28;20885;-78
2021/08/02 04:55:55;;;;;;;2.53;2.33;;;15.70;99.90;;;;;;5036963;28;20468;-78
2021/08/02 04:58:49;;;;;;;4.20;1.90;;;15.20;99.90;;;;;;5036834;28;20247;-78
2021/08/02 05:01:15;;;;;;;2.90;2.10;;;15.20;99.90;;;;;;5025703;28;20441;-76
2021/08/02 05:03:56;;;;;;;5.10;2.67;;;15.30;99.90;;;;;;5015865;28;20456;-75
2021/08/02 05:06:55;;;;;;;5.07;2.27;;;15.40;99.90;;;;;;5022728;28;20415;-75
2021/08/02 05:09:55;;;;;;;2.30;2.10;;;15.50;99.90;;;;;;5031766;28;20402;-75
2021/08/02 05:12:25;;;;;;;6.30;2.10;;;15.60;99.90;;;;;;5037104;28;20779;-75
2021/08/02 05:24:57;;;;;;;5.23;2.43;;;15.80;99.90;;;;;;5036330;28;20394;-79
2021/08/02 05:27:23;;;;;;;3.23;2.20;;;15.80;99.90;;;;;;5026508;28;20432;-84
2021/08/02 05:36:33;;;;;;;6.33;2.13;;;16.10;99.90;;;;;;5032196;28;20520;-79
2021/08/02 05:39:43;;;;;;;2.40;2.20;;;16.20;99.90;;;;;;5025367;28;20873;-79
2021/08/02 05:45:31;;;;;;;2.63;2.17;;;16.30;99.90;;;;;;5020080;28;20843;-83
2021/08/02 05:58:13;;;;;;;7.80;2.33;;;16.20;99.90;;;;;;5031779;28;20890;-83
2021/08/02 06:00:40;;;;;;;2.43;2.23;;;16.30;99.90;;;;;;5033923;28;20417;-79
2021/08/02 06:06:32;;;;;;;2.60;2.17;;;16.20;99.90;;;;;;5021255;28;20755;-79
2021/08/02 06:12:38;;;;;;;5.10;2.20;;;16.20;99.90;;;;;;5033379;28;20369;-79
2021/08/02 06:15:37;;;;;;;2.63;2.23;;;16.20;99.90;;;;;;5031645;28;20466;-80
2021/08/02 06:18:03;;;;;;;7.77;2.50;;;16.30;99.90;;;;;;5035261;28;20740;-79
2021/08/02 06:20:49;;;;;;;8.23;2.50;;;16.30;99.90;;;;;;5035394;28;20367;-79
2021/08/02 06:26:37;;;;;;;7.40;2.40;;;16.60;99.90;;;;;;5035138;28;20422;-79
2021/08/02 06:32:26;;;;;;;2.57;2.03;;;17.20;99.90;;;;;;5033516;28;20386;-85
2021/08/02 06:35:13;;;;;;;2.30;1.90;;;17.60;99.90;;;;;;5033582;28;20445;-84
2021/08/02 06:38:19;;;;;;;2.10;2.00;;;17.80;99.90;;;;;;5028972;28;20429;-83
2021/08/02 06:44:25;;;;;;;2.40;1.97;;;18.30;99.90;;;;;;5015235;28;20816;-83
2021/08/02 06:50:14;;;;;;;1.87;1.77;;;18.60;99.90;;;;;;5015213;28;20923;-83
2021/08/02 06:56:37;;;;;;;7.07;1.90;;;18.90;99.90;;;;;;5022033;28;20437;-83
2021/08/02 07:02:43;;;;;;;2.83;1.93;;;19.40;99.90;;;;;;5016690;28;20421;-83
2021/08/02 07:05:43;;;;;;;5.00;2.20;;;19.40;99.90;;;;;;5014219;28;20790;-83
2021/08/02 07:08:43;;;;;;;4.53;1.93;;;19.50;99.90;;;;;;5026343;28;20476;-83
2021/08/02 07:11:55;;;;;;;3.00;1.80;;;19.60;99.90;;;;;;5022094;28;20426;-84
2021/08/02 07:15:13;;;;;;;3.33;1.53;;;19.70;99.90;;;;;;5034585;28;20457;-84
2021/08/02 07:18:13;;;;;;;2.40;1.57;;;19.90;99.90;;;;;;5032941;28;20762;-83
2021/08/02 07:21:13;;;;;;;3.43;1.67;;;20.00;99.90;;;;;;5019302;28;20407;-84
2021/08/02 07:24:13;;;;;;;8.37;2.00;;;20.00;99.90;;;;;;5018408;28;20423;-84
2021/08/02 07:26:55;;;;;;;2.00;1.23;;;20.00;99.90;;;;;;5033055;28;20926;-84
2021/08/02 07:29:21;;;;;;;3.60;2.03;;;20.00;99.90;;;;;;5032444;28;20404;-83
2021/08/02 07:32:43;;;;;;;4.73;1.63;;;19.90;99.90;;;;;;5032692;28;20447;-84
2021/08/02 07:35:27;;;;;;;3.30;1.83;;;20.20;99.90;;;;;;5013154;28;20316;-83
2021/08/02 07:38:25;;;;;;;2.33;1.70;;;20.10;99.90;;;;;;5029750;28;20402;-84
2021/08/02 07:41:37;;;;;;;4.87;1.50;;;20.30;99.90;;;;;;5030038;28;20457;-83
2021/08/02 07:48:07;;;;;;;3.17;1.60;;;20.50;99.90;;;;;;5034034;28;20454;-79
2021/08/02 07:51:13;;;;;;;2.90;1.47;;;20.50;99.90;;;;;;5014040;28;20393;-79
2021/08/02 07:54:13;;;;;;;3.83;1.67;;;20.60;99.90;;;;;;5014464;28;20449;-79
2021/08/02 07:56:43;;;;;;;3.50;1.70;;;20.70;99.90;;;;;;5033410;28;20423;-79
2021/08/02 08:02:31;;;;;;;7.90;1.80;;;20.70;99.90;;;;;;5033627;28;20867;-75
2021/08/02 08:04:57;;;;;;;1.87;1.50;;;20.80;99.90;;;;;;5033807;28;20479;-75
2021/08/02 08:07:25;;;;;;;3.23;1.70;;;20.90;99.90;;;;;;5028878;28;20203;-75
2021/08/02 08:09:52;;;;;;;3.40;1.80;;;20.90;99.90;;;;;;5021113;28;20180;-75
2021/08/02 08:12:18;;;;;;;2.87;1.37;;;21.00;99.90;;;;;;5033444;28;20425;-75
2021/08/02 08:14:44;;;;;;;4.23;1.37;;;21.00;99.90;;;;;;5031864;28;20436;-75
2021/08/02 08:17:09;;;;;;;7.40;1.40;;;21.00;99.90;;;;;;5026641;28;20965;-75
2021/08/02 08:19:35;;;;;;;7.03;1.40;;;20.90;99.90;;;;;;5023329;28;20174;-75
2021/08/02 08:22:38;;;;;;;3.20;1.80;;;21.00;99.90;;;;;;5029865;28;20502;-75
2021/08/02 08:25:04;;;;;;;1.67;1.33;;;21.20;99.90;;;;;;5018529;28;20174;-75
2021/08/02 08:27:32;;;;;;;1.40;1.30;;;21.30;99.90;;;;;;5031720;28;20435;-75
2021/08/02 08:29:58;;;;;;;7.30;1.70;;;21.40;99.90;;;;;;5033520;28;20713;-75
2021/08/02 08:32:24;;;;;;;10.17;1.73;;;21.40;99.70;;;;;;5031676;28;20428;-75
2021/08/02 08:34:50;;;;;;;7.20;1.73;;;21.30;96.90;;;;;;5032728;28;20460;-75
2021/08/02 08:37:16;;;;;;;5.30;1.57;;;21.40;97.30;;;;;;5024181;28;20184;-75
2021/08/02 08:39:44;;;;;;;1.57;1.40;;;21.40;97.80;;;;;;5013411;28;20401;-75
2021/08/02 08:42:14;;;;;;;2.83;1.70;;;21.50;96.90;;;;;;5015099;28;20520;-75
2021/08/02 08:44:44;;;;;;;5.10;1.73;;;21.60;97.20;;;;;;5028542;28;20463;-75
2021/08/02 08:47:13;;;;;;;3.03;1.53;;;21.60;96.40;;;;;;5032346;28;20421;-75
2021/08/02 08:49:41;;;;;;;9.70;1.60;;;21.90;96.40;;;;;;5024338;28;20420;-75
2021/08/02 08:52:09;;;;;;;4.60;1.80;;;22.10;95.50;;;;;;5026944;28;20430;-77
2021/08/02 08:54:36;;;;;;;2.60;1.20;;;22.30;93.00;;;;;;5022110;28;20548;-75
2021/08/02 08:57:03;;;;;;;4.40;2.53;;;22.20;92.60;;;;;;5017261;28;20438;-74
2021/08/02 08:59:30;;;;;;;1.40;1.30;;;22.30;93.60;;;;;;5023882;28;20437;-75
2021/08/02 09:02:03;;;;;;;1.50;1.40;;;22.30;90.40;;;;;;5025002;28;20422;-75
2021/08/02 09:04:30;;;;;;;8.33;1.70;;;22.10;90.10;;;;;;5031813;28;20437;-75
2021/08/02 09:06:59;;;;;;;4.00;1.33;;;22.10;91.40;;;;;;5031304;28;20425;-75
2021/08/02 09:09:34;;;;;;;4.10;1.23;;;22.10;93.50;;;;;;5013235;28;20926;-75
2021/08/02 09:12:14;;;;;;;1.30;1.20;;;22.10;92.90;;;;;;5022946;28;20507;-75
2021/08/02 09:14:54;;;;;;;98.57;3.83;;;21.80;92.40;;;;;;5022306;28;20460;-75
2021/08/02 09:17:35;;;;;;;10.97;1.37;;;21.90;94.30;;;;;;5024544;28;20556;-75
2021/08/02 09:20:23;;;;;;;4.50;2.00;;;21.90;92.80;;;;;;5032122;28;20438;-75
2021/08/02 09:22:51;;;;;;;4.83;1.50;;;21.90;93.70;;;;;;5035974;28;20433;-75
2021/08/02 09:25:20;;;;;;;3.60;1.47;;;21.90;92.60;;;;;;5028835;28;20424;-75
2021/08/02 09:27:47;;;;;;;5.23;1.53;;;21.90;91.50;;;;;;5027353;28;20438;-75
2021/08/02 09:30:18;;;;;;;4.00;1.20;;;21.90;92.40;;;;;;5036522;28;20788;-75
2021/08/02 09:32:54;;;;;;;3.93;1.47;;;22.30;91.30;;;;;;5035154;28;20773;-75
2021/08/02 09:35:32;;;;;;;6.00;1.63;;;22.30;91.70;;;;;;5018899;28;20969;-75
2021/08/02 09:38:06;;;;;;;6.90;1.90;;;22.50;86.50;;;;;;5021035;28;20405;-75
2021/08/02 09:40:53;;;;;;;2.23;1.70;;;22.80;83.90;;;;;;5030141;28;20430;-75
2021/08/02 09:43:30;;;;;;;2.70;1.57;;;23.00;79.40;;;;;;5019914;28;20443;-76
2021/08/02 09:46:25;;;;;;;2.40;1.40;;;23.00;80.00;;;;;;5036269;28;20495;-80
2021/08/02 09:49:08;;;;;;;7.23;1.83;;;23.00;81.10;;;;;;5020500;28;20956;-81
2021/08/02 09:51:44;;;;;;;2.47;1.80;;;23.10;82.10;;;;;;5018655;28;20428;-80
2021/08/02 09:54:29;;;;;;;4.40;1.97;;;23.10;84.40;;;;;;5017604;28;20448;-80
2021/08/02 09:56:56;;;;;;;3.77;1.63;;;23.30;84.00;;;;;;5016102;28;20510;-81
2021/08/02 10:00:08;;;;;;;1.80;1.60;;;23.40;82.40;;;;;;5034426;28;20421;-81
2021/08/02 10:02:50;;;;;;;6.20;1.90;;;23.30;79.70;;;;;;5036137;28;20450;-80
2021/08/02 10:05:20;;;;;;;1.40;1.30;;;23.50;80.00;;;;;;5033698;28;20417;-80
2021/08/02 10:08:07;;;;;;;8.80;1.30;;;23.50;74.90;;;;;;5015881;28;20411;-80
2021/08/02 10:10:39;;;;;;;1.50;1.40;;;23.60;77.30;;;;;;5014396;28;20787;-80
2021/08/02 10:13:08;;;;;;;4.33;1.50;;;23.70;78.00;;;;;;5028350;28;20453;-80
2021/08/02 10:16:10;;;;;;;4.30;1.40;;;24.00;70.40;;;;;;5035168;28;20461;-81
2021/08/02 10:18:38;;;;;;;3.20;1.53;;;23.80;66.10;;;;;;5029381;28;20802;-75
2021/08/02 10:21:07;;;;;;;1.30;1.20;;;23.80;68.40;;;;;;5034974;28;20965;-74
2021/08/02 10:23:39;;;;;;;2.03;1.60;;;23.70;65.10;;;;;;5026558;28;20415;-75
2021/08/02 10:26:34;;;;;;;3.80;1.37;;;23.50;66.90;;;;;;5022729;28;20486;-80
2021/08/02 10:29:43;;;;;;;2.70;1.63;;;23.50;62.90;;;;;;4955843;28;20471;-80
2021/08/02 10:32:35;;;;;;;1.87;1.43;;;23.50;68.60;;;;;;4953139;28;20445;-80
2021/08/02 10:35:14;;;;;;;4.33;1.40;;;23.50;78.90;;;;;;4952257;28;20464;-79
2021/08/02 10:37:44;;;;;;;4.70;1.90;;;23.60;75.20;;;;;;4954793;29;20963;-80
2021/08/02 10:40:14;;;;;;;2.50;1.67;;;23.60;67.10;;;;;;4955056;29;20428;-80
2021/08/02 10:42:51;;;;;;;6.60;1.60;;;23.50;62.30;;;;;;4938541;29;20424;-80
2021/08/02 10:45:47;;;;;;;1.37;1.27;;;23.50;66.10;;;;;;4964839;28;20534;-80
2021/08/02 10:48:44;;;;;;;4.83;1.30;;;23.50;64.70;;;;;;4954850;29;20846;-80
2021/08/02 10:51:21;;;;;;;3.10;1.40;;;23.70;63.80;;;;;;4954020;29;20764;-80
2021/08/02 10:54:13;;;;;;;2.60;1.37;;;23.80;62.30;;;;;;4953050;29;20586;-80
2021/08/02 10:56:48;;;;;;;4.67;1.70;;;23.90;60.30;;;;;;4942253;29;20437;-79
2021/08/02 10:59:18;;;;;;;1.43;1.33;;;23.80;55.20;;;;;;4954267;29;20490;-80
2021/08/02 11:02:14;;;;;;;3.90;1.63;;;23.80;54.80;;;;;;4951709;29;20432;-80
2021/08/02 11:04:41;;;;;;;5.10;1.47;;;23.80;57.10;;;;;;4969007;28;20469;-76
2021/08/02 11:07:08;;;;;;;11.77;1.50;;;23.80;58.80;;;;;;5034707;28;20491;-76
2021/08/02 11:09:38;;;;;;;5.53;1.47;;;23.90;50.00;;;;;;5034498;28;20393;-75
2021/08/02 11:12:13;;;;;;;1.93;1.23;;;24.10;52.30;;;;;;5016389;28;20410;-76
2021/08/02 11:14:50;;;;;;;5.03;1.60;;;24.20;46.60;;;;;;5020801;28;20545;-76
2021/08/02 11:17:18;;;;;;;5.70;1.40;;;24.20;50.00;;;;;;5020816;28;20402;-76
2021/08/02 11:19:45;;;;;;;1.40;1.33;;;24.10;49.60;;;;;;5026466;28;20421;-76
2021/08/02 11:22:14;;;;;;;5.07;1.13;;;24.20;46.30;;;;;;5028761;28;20913;-75
2021/08/02 11:24:54;;;;;;;16.43;1.53;;;24.20;50.00;;;;;;5025963;28;20758;-75
2021/08/02 11:27:21;;;;;;;3.00;1.40;;;23.80;52.80;;;;;;5026400;28;20421;-75
2021/08/02 11:29:52;;;;;;;1.60;1.50;;;23.70;55.40;;;;;;5025193;28;20500;-75
2021/08/02 11:32:20;;;;;;;8.83;1.67;;;23.50;64.00;;;;;;5034080;28;20425;-77
2021/08/02 11:35:14;;;;;;;3.30;1.40;;;23.30;69.90;;;;;;5026113;28;20494;-78
2021/08/02 11:41:01;;;;;;;4.70;1.50;;;22.70;90.10;;;;;;5025855;28;20464;-74
2021/08/02 11:43:49;;;;;;;3.17;2.23;;;22.60;87.20;;;;;;5024552;28;20423;-75
2021/08/02 11:46:16;;;;;;;1.73;1.10;;;22.40;90.50;;;;;;5022946;28;20176;-75
2021/08/02 11:48:56;;;;;;;1.90;1.30;;;22.20;91.20;;;;;;5029309;28;20412;-74
2021/08/02 11:51:22;;;;;;;2.23;1.30;;;22.20;92.50;;;;;;5013931;28;20413;-74
2021/08/02 11:53:57;;;;;;;3.20;1.30;;;21.60;99.10;;;;;;5025135;28;20452;-75
2021/08/02 11:56:32;;;;;;;2.70;1.40;;;21.40;99.90;;;;;;5033621;28;20224;-75
2021/08/02 11:58:58;;;;;;;1.43;1.33;;;21.50;99.90;;;;;;5031806;28;20830;-75
2021/08/02 12:01:24;;;;;;;2.10;1.50;;;21.50;99.90;;;;;;5033288;28;20415;-75
2021/08/02 12:03:56;;;;;;;3.63;1.40;;;21.40;99.90;;;;;;5034090;28;20433;-80
2021/08/02 12:06:22;;;;;;;1.83;1.20;;;21.50;99.90;;;;;;5028562;28;20173;-80
2021/08/02 12:08:52;;;;;;;3.27;1.60;;;21.60;99.90;;;;;;5029242;28;20435;-79
2021/08/02 12:11:49;;;;;;;5.97;1.43;;;21.50;99.90;;;;;;5026768;28;20422;-80
2021/08/02 12:14:33;;;;;;;1.90;0.90;;;21.50;99.90;;;;;;5025550;28;20464;-80
2021/08/02 12:20:30;;;;;;;1.90;0.83;;;21.70;92.70;;;;;;5013854;28;20452;-80
2021/08/02 12:26:20;;;;;;;2.30;1.30;;;21.80;95.30;;;;;;5013728;28;20388;-80
2021/08/02 12:28:47;;;;;;;1.37;0.80;;;21.90;92.20;;;;;;5014478;28;20394;-79
2021/08/02 12:34:50;;;;;;;1.20;0.80;;;22.00;92.60;;;;;;5033293;28;20461;-80
2021/08/02 12:40:37;;;;;;;2.70;0.83;;;22.10;92.70;;;;;;5033420;28;20379;-80
2021/08/02 12:43:19;;;;;;;1.13;0.70;;;22.30;93.00;;;;;;5032615;28;20419;-80
2021/08/02 12:49:07;;;;;;;0.70;0.60;;;22.50;93.10;;;;;;5013575;28;20423;-75
2021/08/02 12:55:04;;;;;;;1.93;1.20;;;22.80;78.50;;;;;;5015240;28;20220;-77
2021/08/02 12:58:13;;;;;;;3.07;0.90;;;22.80;80.70;;;;;;5017506;28;20409;-78
2021/08/02 13:01:14;;;;;;;3.07;1.00;;;22.90;75.00;;;;;;5033770;28;20767;-79
2021/08/02 13:03:42;;;;;;;1.60;0.90;;;23.00;79.70;;;;;;5036902;28;20504;-86
2021/08/02 13:13:02;;;;;;;1.60;1.10;;;23.30;82.90;;;;;;5033104;28;20923;-79
2021/08/02 13:16:19;;;;;;;1.70;1.00;;;23.50;82.70;;;;;;5029843;28;20469;-79
2021/08/02 13:19:31;;;;;;;2.90;1.20;;;23.70;79.30;;;;;;5032508;28;20927;-79
2021/08/02 13:29:13;;;;;;;2.70;1.53;;;24.10;78.80;;;;;;4940849;29;20417;-78
2021/08/02 13:32:09;;;;;;;2.97;1.10;;;24.10;72.00;;;;;;4925725;29;20413;-79
2021/08/02 13:34:47;;;;;;;1.37;1.10;;;24.30;74.90;;;;;;4937138;29;20796;-81
2021/08/02 13:37:21;;;;;;;2.17;1.97;;;24.60;68.40;;;;;;4937859;28;20476;-80
2021/08/02 13:46:30;;;;;;;2.17;1.70;;;24.90;71.40;;;;;;4955966;29;20481;-83
2021/08/02 13:49:13;;;;;;;2.13;1.93;;;25.50;58.60;;;;;;4939874;29;20926;-81
2021/08/02 13:55:08;;;;;;;2.30;1.87;;;25.50;50.80;;;;;;4938743;29;20499;-79
2021/08/02 13:58:08;;;;;;;1.80;1.70;;;25.50;52.30;;;;;;4955282;28;20486;-79
2021/08/02 14:03:56;;;;;;;2.30;1.60;;;25.60;49.20;;;;;;5015774;28;20484;-79
2021/08/02 14:06:49;;;;;;;1.83;1.50;;;25.70;45.40;;;;;;5019341;28;20414;-79
2021/08/02 14:09:20;;;;;;;1.87;1.43;;;26.10;40.60;;;;;;5035559;28;20567;-79
2021/08/02 14:12:09;;;;;;;2.07;1.90;;;26.10;42.60;;;;;;5035532;28;20470;-79
2021/08/02 14:14:40;;;;;;;1.57;1.47;;;26.60;41.00;;;;;;5032804;28;20485;-79
2021/08/02 14:20:28;;;;;;;1.83;1.50;;;26.80;43.10;;;;;;5035620;28;20495;-77
2021/08/02 14:23:49;;;;;;;1.10;1.10;;;26.70;43.00;;;;;;5035542;28;20914;-76
2021/08/02 14:27:07;;;;;;;1.17;1.10;;;26.70;41.10;;;;;;5035561;28;20156;-76
2021/08/02 14:30:07;;;;;;;1.60;1.13;;;26.60;43.00;;;;;;5021381;28;20400;-76
2021/08/02 14:32:37;;;;;;;1.50;1.40;;;26.40;40.90;;;;;;5028067;28;20442;-76
2021/08/02 14:35:34;;;;;;;1.53;1.27;;;25.70;40.40;;;;;;5016131;28;20447;-76
2021/08/02 14:38:09;;;;;;;2.40;1.17;;;25.60;42.30;;;;;;5015730;28;20423;-76
2021/08/02 14:40:36;;;;;;;2.60;1.43;;;25.10;40.00;;;;;;5033689;28;20427;-76
2021/08/02 14:43:16;;;;;;;9.60;1.20;;;25.10;42.00;;;;;;5035429;28;20930;-76
2021/08/02 14:45:43;;;;;;;1.10;1.10;;;24.70;40.00;;;;;;5034249;28;20432;-76
2021/08/02 14:48:24;;;;;;;2.07;0.90;;;24.60;42.60;;;;;;5034875;28;20858;-76
2021/08/02 14:51:14;;;;;;;2.00;0.90;;;24.00;39.00;;;;;;5033408;28;20417;-83
2021/08/02 14:54:07;;;;;;;1.20;1.10;;;23.70;42.10;;;;;;5034702;28;20472;-81
2021/08/02 14:56:39;;;;;;;6.90;1.50;;;23.70;45.90;;;;;;5034935;28;20429;-79
2021/08/02 14:59:05;;;;;;;17.03;1.20;;;23.20;55.40;;;;;;5034731;28;20440;-81
2021/08/02 15:01:36;;;;;;;4.83;1.33;;;22.70;64.90;;;;;;5030892;28;20416;-80
2021/08/02 15:04:04;;;;;;;1.13;1.10;;;22.30;75.20;;;;;;5028463;28;20967;-80
2021/08/02 15:09:52;;;;;;;1.60;1.50;;;21.60;97.60;;;;;;5015631;28;20414;-82
2021/08/02 15:13:13;;;;;;;1.13;1.03;;;21.50;99.90;;;;;;5022590;28;20430;-84
2021/08/02 15:15:42;;;;;;;3.37;1.40;;;21.30;99.90;;;;;;5033301;28;20455;-83
2021/08/02 15:18:24;;;;;;;1.70;1.60;;;21.30;99.90;;;;;;5033881;28;20408;-84
2021/08/02 15:27:36;;;;;;;8.20;1.60;;;21.80;99.90;;;;;;5034110;28;20368;-82
2021/08/02 15:30:37;;;;;;;2.97;1.27;;;21.90;99.90;;;;;;5021880;28;20439;-85
2021/08/02 15:36:46;;;;;;;3.60;1.70;;;22.00;99.90;;;;;;5014499;28;20483;-83
2021/08/02 15:39:16;;;;;;;1.90;1.30;;;21.90;99.90;;;;;;5023145;28;20976;-84
2021/08/02 15:41:51;;;;;;;2.03;1.40;;;21.80;99.90;;;;;;5033569;28;20418;-84
2021/08/02 15:54:24;;;;;;;3.23;1.47;;;21.10;99.90;;;;;;5014166;28;20507;-83
2021/08/02 15:57:00;;;;;;;1.40;1.30;;;21.70;99.90;;;;;;5014064;28;20397;-83
2021/08/02 15:59:31;;;;;;;1.57;1.30;;;22.30;99.90;;;;;;5015583;28;20992;-84
2021/08/02 16:02:40;;;;;;;11.90;1.17;;;25.20;99.90;;;;;;5024098;28;20961;-84
2021/08/02 16:05:55;;;;;;;2.20;0.93;;;28.20;56.90;;;;;;4956526;28;20519;-84
2021/08/02 16:12:10;;;;;;;2.10;1.37;;;27.90;58.20;;;;;;4971290;28;20452;-83
2021/08/02 16:17:57;;;;;;;1.77;1.20;;;28.00;63.30;;;;;;4953593;29;20458;-83